Svitzer Elbeheira — 6ADZ — position and weather

sailwx.info

Track history (hours):
 
Tides and Currents Weather Stations Pressure Air Temp Water Temp Dewpoint Dewpoint Depression Visibility Wind Speed Wind Dir Waves Ship Positions

Svitzer Elbeheira

Last reported at 2017-Jul-27 20:47 UTC. Time now 2017-Aug-19 22:31 UTC.
Position N 31°26' E 030°15'.
Warning: this ship's position is 23 days out of date.

Length 34 m.

Type: Tug. MMSI: 622166801.

Date/timePositionNaut miles runAvg speedWind from/ knotsBaromVisibWave heightAir tempDewpointWater temp
2017-Jul-27 20:47N 31°26' E 030°15'3 0.3
2017-Jul-27 08:09N 31°29' E 030°13'0 0.4
2017-Jul-27 07:40N 31°29' E 030°13'3 0.5
2017-Jul-27 01:59N 31°27' E 030°15'1 0.9
2017-Jul-27 01:24N 31°27' E 030°15'0 0.2
2017-Jul-27 01:00N 31°27' E 030°15'0 0.2
2017-Jul-27 00:10N 31°27' E 030°15'0 0.2
2017-Jul-26 23:11N 31°27' E 030°15'0 0.2
2017-Jul-26 21:43N 31°26' E 030°15'3 9.4
2017-Jul-26 21:26N 31°24' E 030°16'2 0.9
2017-Jul-26 19:09N 31°22' E 030°18'0 0.0
2017-Jul-26 10:41N 31°22' E 030°18'0 0.1
2017-Jul-26 10:30N 31°22' E 030°18'0 0.1
2017-Jul-26 09:58N 31°22' E 030°18'1 0.3
2017-Jul-26 05:18N 31°23' E 030°17'0 1.5
2017-Jul-26 05:00N 31°24' E 030°17'0 0.2
2017-Jul-26 03:24N 31°24' E 030°16'0 0.4
2017-Jul-26 02:56N 31°24' E 030°16'1 0.2
2017-Jul-25 21:21N 31°23' E 030°17'2 0.2
2017-Jul-25 08:09N 31°22' E 030°15'1 0.3
2017-Jul-25 06:00N 31°22' E 030°15'5 0.7
2017-Jul-24 23:12N 31°27' E 030°15'0 0.1
2017-Jul-24 17:22N 31°27' E 030°15'1 2.3
2017-Jul-24 16:59N 31°27' E 030°15'3 0.6
2017-Jul-24 12:12N 31°30' E 030°12'0 2.4
2017-Jul-24 12:00N 31°30' E 030°12'  
2017-Jul-18 18:07N 31°31' E 030°08'6 2.3
2017-Jul-18 15:23N 31°26' E 030°13'0 0.1
2017-Jul-18 13:53N 31°26' E 030°13'1 1.7
2017-Jul-18 13:15N 31°26' E 030°14'1 2.8
2017-Jul-18 12:59N 31°26' E 030°13'0 0.3
2017-Jul-18 12:22N 31°26' E 030°13'1 1.0
2017-Jul-18 11:00N 31°26' E 030°14'  
Track history (hours):
 
Tides and Currents Weather Stations Pressure Air Temp Water Temp Dewpoint Dewpoint Depression Visibility Wind Speed Wind Dir Waves Ship Positions

Svitzer Elbeheira

Last reported at 2017-Jul-27 20:47 UTC. Time now 2017-Aug-19 22:31 UTC.
Position N 31°26' E 030°15'.
Warning: this ship's position is 23 days out of date.

Length 34 m.

Type: Tug. MMSI: 622166801.

Date/timePositionNaut miles runAvg speedWind from/ knotsBaromVisibWave heightAir tempDewpointWater temp
2017-Jul-27 20:47N 31°26' E 030°15'3 0.3
2017-Jul-27 08:09N 31°29' E 030°13'0 0.4
2017-Jul-27 07:40N 31°29' E 030°13'3 0.5
2017-Jul-27 01:59N 31°27' E 030°15'1 0.9
2017-Jul-27 01:24N 31°27' E 030°15'0 0.2
2017-Jul-27 01:00N 31°27' E 030°15'0 0.2
2017-Jul-27 00:10N 31°27' E 030°15'0 0.2
2017-Jul-26 23:11N 31°27' E 030°15'0 0.2
2017-Jul-26 21:43N 31°26' E 030°15'3 9.4
2017-Jul-26 21:26N 31°24' E 030°16'2 0.9
2017-Jul-26 19:09N 31°22' E 030°18'0 0.0
2017-Jul-26 10:41N 31°22' E 030°18'0 0.1
2017-Jul-26 10:30N 31°22' E 030°18'0 0.1
2017-Jul-26 09:58N 31°22' E 030°18'1 0.3
2017-Jul-26 05:18N 31°23' E 030°17'0 1.5
2017-Jul-26 05:00N 31°24' E 030°17'0 0.2
2017-Jul-26 03:24N 31°24' E 030°16'0 0.4
2017-Jul-26 02:56N 31°24' E 030°16'1 0.2
2017-Jul-25 21:21N 31°23' E 030°17'2 0.2
2017-Jul-25 08:09N 31°22' E 030°15'1 0.3
2017-Jul-25 06:00N 31°22' E 030°15'5 0.7
2017-Jul-24 23:12N 31°27' E 030°15'0 0.1
2017-Jul-24 17:22N 31°27' E 030°15'1 2.3
2017-Jul-24 16:59N 31°27' E 030°15'3 0.6
2017-Jul-24 12:12N 31°30' E 030°12'0 2.4
2017-Jul-24 12:00N 31°30' E 030°12'  
2017-Jul-18 18:07N 31°31' E 030°08'6 2.3
2017-Jul-18 15:23N 31°26' E 030°13'0 0.1
2017-Jul-18 13:53N 31°26' E 030°13'1 1.7
2017-Jul-18 13:15N 31°26' E 030°14'1 2.8
2017-Jul-18 12:59N 31°26' E 030°13'0 0.3
2017-Jul-18 12:22N 31°26' E 030°13'1 1.0
2017-Jul-18 11:00N 31°26' E 030°14'  

Dump ship's entire track history